LRBC/BCM METAR and TAF weather

Enter ICAO airport designator
Station Type Date Time Source
LRBC METAR 2020/07/06 09:00 UTC NOAA

LRBC 060900Z 01005KT 300V070 CAVOK 29/17 Q1011


Station Type Date Time Source
LRBC Decoded METAR 2020/07/06 09:00 UTC NOAA

Bacau, Romania (LRBC) 46-35N 026-58E 190M
Jul 06, 2020 - 05:00 AM EDT / 2020.07.06 0900 UTC
Wind: from the N (010 degrees) at 6 MPH (5 KT) (direction variable):0
Visibility: greater than 7 mile(s):0
Temperature: 84 F (29 C)
Dew Point: 62 F (17 C)
Relative Humidity: 48%
Pressure (altimeter): 29.85 in. Hg (1011 hPa)
ob: LRBC 060900Z 01005KT 300V070 CAVOK 29/17 Q1011
cycle: 9

Station Type Date Time Source
LRBC TAF 2010/08/31 20:30 UTC NOAA

TAF LRBC 312030Z 3121/0203 CNL

Example: see airport list